sensor_id;sensor_type;location;lat;lon;timestamp;P1;durP1;ratioP1;P2;durP2;ratioP2
66741;SDS011;53654;54.152;19.432;2022-10-23T00:01:43;24.20;;;21.60;;
66741;SDS011;53654;54.152;19.432;2022-10-23T00:04:13;24.30;;;21.80;;
66741;SDS011;53654;54.152;19.432;2022-10-23T00:06:43;26.40;;;22.90;;
66741;SDS011;53654;54.152;19.432;2022-10-23T00:09:13;25.00;;;22.30;;
66741;SDS011;53654;54.152;19.432;2022-10-23T00:11:44;24.00;;;21.50;;
66741;SDS011;53654;54.152;19.432;2022-10-23T00:14:18;24.40;;;21.90;;
66741;SDS011;53654;54.152;19.432;2022-10-23T00:16:48;23.60;;;21.10;;
66741;SDS011;53654;54.152;19.432;2022-10-23T00:19:16;23.30;;;20.80;;
66741;SDS011;53654;54.152;19.432;2022-10-23T00:21:44;23.70;;;21.10;;
66741;SDS011;53654;54.152;19.432;2022-10-23T00:24:12;25.30;;;22.00;;
66741;SDS011;53654;54.152;19.432;2022-10-23T00:26:41;25.40;;;22.80;;
66741;SDS011;53654;54.152;19.432;2022-10-23T00:29:09;24.50;;;21.70;;
66741;SDS011;53654;54.152;19.432;2022-10-23T00:31:38;24.00;;;21.40;;
66741;SDS011;53654;54.152;19.432;2022-10-23T00:34:06;22.60;;;19.70;;
66741;SDS011;53654;54.152;19.432;2022-10-23T00:36:35;23.40;;;20.80;;
66741;SDS011;53654;54.152;19.432;2022-10-23T00:39:04;22.50;;;20.10;;
66741;SDS011;53654;54.152;19.432;2022-10-23T00:41:33;22.20;;;19.60;;
66741;SDS011;53654;54.152;19.432;2022-10-23T00:44:08;20.30;;;18.10;;
66741;SDS011;53654;54.152;19.432;2022-10-23T00:46:57;20.50;;;18.40;;
66741;SDS011;53654;54.152;19.432;2022-10-23T00:49:26;22.20;;;18.50;;
66741;SDS011;53654;54.152;19.432;2022-10-23T00:51:56;19.70;;;17.60;;
66741;SDS011;53654;54.152;19.432;2022-10-23T00:54:28;20.00;;;18.00;;
66741;SDS011;53654;54.152;19.432;2022-10-23T00:57:02;20.00;;;17.90;;
66741;SDS011;53654;54.152;19.432;2022-10-23T00:59:32;21.30;;;19.00;;
66741;SDS011;53654;54.152;19.432;2022-10-23T01:02:00;19.90;;;17.80;;
66741;SDS011;53654;54.152;19.432;2022-10-23T01:04:29;20.60;;;18.40;;
66741;SDS011;53654;54.152;19.432;2022-10-23T01:07:05;21.60;;;19.30;;
66741;SDS011;53654;54.152;19.432;2022-10-23T01:12:39;21.80;;;18.70;;
66741;SDS011;53654;54.152;19.432;2022-10-23T01:15:21;22.00;;;18.70;;
66741;SDS011;53654;54.152;19.432;2022-10-23T01:20:57;25.30;;;20.20;;
66741;SDS011;53654;54.152;19.432;2022-10-23T01:23:38;23.50;;;19.20;;
66741;SDS011;53654;54.152;19.432;2022-10-23T01:29:09;24.20;;;19.00;;
66741;SDS011;53654;54.152;19.432;2022-10-23T01:32:03;23.80;;;19.10;;
66741;SDS011;53654;54.152;19.432;2022-10-23T01:37:20;21.90;;;18.00;;
66741;SDS011;53654;54.152;19.432;2022-10-23T01:40:00;23.40;;;18.20;;
66741;SDS011;53654;54.152;19.432;2022-10-23T01:42:35;20.80;;;17.90;;
66741;SDS011;53654;54.152;19.432;2022-10-23T01:45:09;21.30;;;18.00;;
66741;SDS011;53654;54.152;19.432;2022-10-23T01:47:57;20.20;;;17.50;;
66741;SDS011;53654;54.152;19.432;2022-10-23T01:50:29;21.90;;;17.70;;
66741;SDS011;53654;54.152;19.432;2022-10-23T01:53:02;22.20;;;17.70;;
66741;SDS011;53654;54.152;19.432;2022-10-23T01:55:31;22.70;;;17.00;;
66741;SDS011;53654;54.152;19.432;2022-10-23T01:58:03;19.30;;;16.50;;
66741;SDS011;53654;54.152;19.432;2022-10-23T02:00:39;21.20;;;16.80;;
66741;SDS011;53654;54.152;19.432;2022-10-23T02:03:10;20.90;;;16.70;;
66741;SDS011;53654;54.152;19.432;2022-10-23T02:05:40;19.20;;;17.10;;
66741;SDS011;53654;54.152;19.432;2022-10-23T02:08:10;20.50;;;16.50;;
66741;SDS011;53654;54.152;19.432;2022-10-23T02:21:27;19.20;;;15.70;;
66741;SDS011;53654;54.152;19.432;2022-10-23T02:24:02;18.50;;;15.50;;
66741;SDS011;53654;54.152;19.432;2022-10-23T02:26:41;17.20;;;15.40;;
66741;SDS011;53654;54.152;19.432;2022-10-23T02:29:16;17.90;;;15.70;;
66741;SDS011;53654;54.152;19.432;2022-10-23T02:31:49;18.00;;;15.90;;
66741;SDS011;53654;54.152;19.432;2022-10-23T02:34:18;19.80;;;16.40;;
66741;SDS011;53654;54.152;19.432;2022-10-23T02:36:46;21.50;;;17.60;;
66741;SDS011;53654;54.152;19.432;2022-10-23T02:39:14;20.40;;;17.20;;
66741;SDS011;53654;54.152;19.432;2022-10-23T02:47:06;19.50;;;16.90;;
66741;SDS011;53654;54.152;19.432;2022-10-23T02:50:00;20.90;;;17.30;;
66741;SDS011;53654;54.152;19.432;2022-10-23T02:52:39;19.00;;;16.00;;
66741;SDS011;53654;54.152;19.432;2022-10-23T02:58:18;19.50;;;16.10;;
66741;SDS011;53654;54.152;19.432;2022-10-23T03:01:09;19.40;;;16.30;;
66741;SDS011;53654;54.152;19.432;2022-10-23T03:04:17;18.60;;;15.70;;
66741;SDS011;53654;54.152;19.432;2022-10-23T03:06:38;17.50;;;15.40;;
66741;SDS011;53654;54.152;19.432;2022-10-23T03:09:15;18.80;;;15.90;;
66741;SDS011;53654;54.152;19.432;2022-10-23T03:11:43;18.10;;;15.20;;
66741;SDS011;53654;54.152;19.432;2022-10-23T03:14:11;18.00;;;16.00;;
66741;SDS011;53654;54.152;19.432;2022-10-23T03:16:40;19.60;;;16.00;;
66741;SDS011;53654;54.152;19.432;2022-10-23T03:19:10;18.30;;;16.00;;
66741;SDS011;53654;54.152;19.432;2022-10-23T03:21:43;17.90;;;15.30;;
66741;SDS011;53654;54.152;19.432;2022-10-23T03:24:11;18.30;;;15.40;;
66741;SDS011;53654;54.152;19.432;2022-10-23T03:26:42;17.80;;;15.90;;
66741;SDS011;53654;54.152;19.432;2022-10-23T03:29:10;17.40;;;15.60;;
66741;SDS011;53654;54.152;19.432;2022-10-23T03:31:43;17.60;;;15.80;;
66741;SDS011;53654;54.152;19.432;2022-10-23T03:34:11;17.90;;;15.50;;
66741;SDS011;53654;54.152;19.432;2022-10-23T03:36:41;18.70;;;16.70;;
66741;SDS011;53654;54.152;19.432;2022-10-23T03:39:10;19.50;;;17.10;;
66741;SDS011;53654;54.152;19.432;2022-10-23T03:41:38;21.80;;;19.40;;
66741;SDS011;53654;54.152;19.432;2022-10-23T03:44:07;20.60;;;18.40;;
66741;SDS011;53654;54.152;19.432;2022-10-23T03:46:35;20.20;;;18.10;;
66741;SDS011;53654;54.152;19.432;2022-10-23T03:49:03;20.60;;;18.40;;
66741;SDS011;53654;54.152;19.432;2022-10-23T03:51:33;22.80;;;20.40;;
66741;SDS011;53654;54.152;19.432;2022-10-23T03:54:01;24.80;;;22.20;;
66741;SDS011;53654;54.152;19.432;2022-10-23T03:56:29;23.50;;;21.00;;
66741;SDS011;53654;54.152;19.432;2022-10-23T03:58:59;23.40;;;20.90;;
66741;SDS011;53654;54.152;19.432;2022-10-23T04:01:27;23.20;;;20.90;;
66741;SDS011;53654;54.152;19.432;2022-10-23T04:03:55;23.30;;;20.90;;
66741;SDS011;53654;54.152;19.432;2022-10-23T04:06:24;24.10;;;21.50;;
66741;SDS011;53654;54.152;19.432;2022-10-23T04:08:55;25.70;;;22.80;;
66741;SDS011;53654;54.152;19.432;2022-10-23T04:11:23;25.70;;;22.90;;
66741;SDS011;53654;54.152;19.432;2022-10-23T04:13:51;26.00;;;23.20;;
66741;SDS011;53654;54.152;19.432;2022-10-23T04:16:19;28.20;;;24.50;;
66741;SDS011;53654;54.152;19.432;2022-10-23T04:18:47;28.30;;;23.10;;
66741;SDS011;53654;54.152;19.432;2022-10-23T04:21:15;25.40;;;22.70;;
66741;SDS011;53654;54.152;19.432;2022-10-23T04:23:44;27.90;;;23.90;;
66741;SDS011;53654;54.152;19.432;2022-10-23T04:26:14;26.10;;;22.30;;
66741;SDS011;53654;54.152;19.432;2022-10-23T04:28:42;25.60;;;22.70;;
66741;SDS011;53654;54.152;19.432;2022-10-23T04:31:10;27.50;;;24.30;;
66741;SDS011;53654;54.152;19.432;2022-10-23T04:33:40;25.70;;;22.90;;
66741;SDS011;53654;54.152;19.432;2022-10-23T04:36:08;25.00;;;22.20;;
66741;SDS011;53654;54.152;19.432;2022-10-23T04:38:38;26.20;;;22.60;;
66741;SDS011;53654;54.152;19.432;2022-10-23T04:41:06;25.80;;;23.00;;
66741;SDS011;53654;54.152;19.432;2022-10-23T04:43:35;23.40;;;20.90;;
66741;SDS011;53654;54.152;19.432;2022-10-23T04:46:03;27.60;;;23.10;;
66741;SDS011;53654;54.152;19.432;2022-10-23T04:48:33;25.70;;;22.80;;
66741;SDS011;53654;54.152;19.432;2022-10-23T04:51:16;24.20;;;21.50;;
66741;SDS011;53654;54.152;19.432;2022-10-23T04:54:08;25.00;;;22.00;;
66741;SDS011;53654;54.152;19.432;2022-10-23T04:56:45;27.40;;;22.80;;
66741;SDS011;53654;54.152;19.432;2022-10-23T04:59:16;28.90;;;24.70;;
66741;SDS011;53654;54.152;19.432;2022-10-23T05:01:45;33.00;;;26.40;;
66741;SDS011;53654;54.152;19.432;2022-10-23T05:04:13;31.10;;;26.20;;
66741;SDS011;53654;54.152;19.432;2022-10-23T05:07:00;30.20;;;25.30;;
66741;SDS011;53654;54.152;19.432;2022-10-23T05:09:54;34.50;;;26.00;;
66741;SDS011;53654;54.152;19.432;2022-10-23T05:12:28;31.00;;;25.80;;
66741;SDS011;53654;54.152;19.432;2022-10-23T05:14:57;31.10;;;25.80;;
66741;SDS011;53654;54.152;19.432;2022-10-23T05:17:31;29.10;;;25.10;;
66741;SDS011;53654;54.152;19.432;2022-10-23T05:20:05;30.60;;;25.30;;
66741;SDS011;53654;54.152;19.432;2022-10-23T05:22:39;29.90;;;24.90;;
66741;SDS011;53654;54.152;19.432;2022-10-23T05:25:11;33.70;;;25.10;;
66741;SDS011;53654;54.152;19.432;2022-10-23T05:27:43;30.70;;;25.50;;
66741;SDS011;53654;54.152;19.432;2022-10-23T05:30:13;31.30;;;25.10;;
66741;SDS011;53654;54.152;19.432;2022-10-23T05:32:41;28.50;;;24.30;;
66741;SDS011;53654;54.152;19.432;2022-10-23T05:35:12;28.80;;;24.50;;
66741;SDS011;53654;54.152;19.432;2022-10-23T05:37:46;26.50;;;23.20;;
66741;SDS011;53654;54.152;19.432;2022-10-23T05:40:20;28.10;;;23.30;;
66741;SDS011;53654;54.152;19.432;2022-10-23T05:42:52;28.00;;;23.70;;
66741;SDS011;53654;54.152;19.432;2022-10-23T05:45:37;28.50;;;24.10;;
66741;SDS011;53654;54.152;19.432;2022-10-23T05:48:20;29.20;;;24.00;;
66741;SDS011;53654;54.152;19.432;2022-10-23T05:51:21;31.50;;;25.30;;
66741;SDS011;53654;54.152;19.432;2022-10-23T05:53:58;27.80;;;24.10;;
66741;SDS011;53654;54.152;19.432;2022-10-23T05:56:34;29.50;;;24.20;;
66741;SDS011;53654;54.152;19.432;2022-10-23T05:59:18;30.00;;;23.80;;
66741;SDS011;53654;54.152;19.432;2022-10-23T06:02:08;29.20;;;24.20;;
66741;SDS011;53654;54.152;19.432;2022-10-23T06:04:52;27.80;;;23.70;;
66741;SDS011;53654;54.152;19.432;2022-10-23T06:07:40;25.90;;;22.80;;
66741;SDS011;53654;54.152;19.432;2022-10-23T06:10:09;26.10;;;22.80;;
66741;SDS011;53654;54.152;19.432;2022-10-23T06:12:40;26.30;;;22.50;;
66741;SDS011;53654;54.152;19.432;2022-10-23T06:15:10;25.20;;;22.30;;
66741;SDS011;53654;54.152;19.432;2022-10-23T06:17:55;25.50;;;21.90;;
66741;SDS011;53654;54.152;19.432;2022-10-23T06:20:28;24.90;;;22.10;;
66741;SDS011;53654;54.152;19.432;2022-10-23T06:23:05;27.60;;;21.70;;
66741;SDS011;53654;54.152;19.432;2022-10-23T06:25:51;26.90;;;21.90;;
66741;SDS011;53654;54.152;19.432;2022-10-23T06:28:25;26.30;;;22.60;;
66741;SDS011;53654;54.152;19.432;2022-10-23T06:30:53;25.00;;;21.90;;
66741;SDS011;53654;54.152;19.432;2022-10-23T06:33:21;25.70;;;21.80;;
66741;SDS011;53654;54.152;19.432;2022-10-23T06:35:49;28.20;;;22.30;;
66741;SDS011;53654;54.152;19.432;2022-10-23T06:38:17;26.70;;;22.80;;
66741;SDS011;53654;54.152;19.432;2022-10-23T06:40:54;28.70;;;22.60;;
66741;SDS011;53654;54.152;19.432;2022-10-23T06:43:33;29.00;;;22.70;;
66741;SDS011;53654;54.152;19.432;2022-10-23T06:46:15;29.20;;;22.60;;
66741;SDS011;53654;54.152;19.432;2022-10-23T06:49:05;29.10;;;22.90;;
66741;SDS011;53654;54.152;19.432;2022-10-23T06:51:43;27.20;;;22.60;;
66741;SDS011;53654;54.152;19.432;2022-10-23T06:54:12;27.30;;;22.90;;
66741;SDS011;53654;54.152;19.432;2022-10-23T06:56:49;28.90;;;23.50;;
66741;SDS011;53654;54.152;19.432;2022-10-23T06:59:21;29.40;;;23.30;;
66741;SDS011;53654;54.152;19.432;2022-10-23T07:01:51;30.70;;;23.80;;
66741;SDS011;53654;54.152;19.432;2022-10-23T07:04:24;29.20;;;22.90;;
66741;SDS011;53654;54.152;19.432;2022-10-23T07:06:56;29.00;;;23.30;;
66741;SDS011;53654;54.152;19.432;2022-10-23T07:09:29;29.30;;;22.60;;
66741;SDS011;53654;54.152;19.432;2022-10-23T07:11:57;28.60;;;22.70;;
66741;SDS011;53654;54.152;19.432;2022-10-23T07:14:32;30.80;;;24.40;;
66741;SDS011;53654;54.152;19.432;2022-10-23T07:17:01;29.60;;;22.90;;
66741;SDS011;53654;54.152;19.432;2022-10-23T07:19:29;28.50;;;22.80;;
66741;SDS011;53654;54.152;19.432;2022-10-23T07:22:01;29.40;;;24.20;;
66741;SDS011;53654;54.152;19.432;2022-10-23T07:24:31;28.80;;;23.10;;
66741;SDS011;53654;54.152;19.432;2022-10-23T07:27:07;29.50;;;22.50;;
66741;SDS011;53654;54.152;19.432;2022-10-23T07:29:35;27.10;;;21.90;;
66741;SDS011;53654;54.152;19.432;2022-10-23T07:32:04;29.90;;;23.00;;
66741;SDS011;53654;54.152;19.432;2022-10-23T07:34:51;28.40;;;22.70;;
66741;SDS011;53654;54.152;19.432;2022-10-23T07:37:25;28.10;;;22.00;;
66741;SDS011;53654;54.152;19.432;2022-10-23T07:39:53;28.10;;;21.50;;
66741;SDS011;53654;54.152;19.432;2022-10-23T07:42:22;29.90;;;22.50;;
66741;SDS011;53654;54.152;19.432;2022-10-23T07:44:50;28.20;;;22.50;;
66741;SDS011;53654;54.152;19.432;2022-10-23T07:47:18;28.40;;;22.20;;
66741;SDS011;53654;54.152;19.432;2022-10-23T07:49:49;29.40;;;22.50;;
66741;SDS011;53654;54.152;19.432;2022-10-23T07:52:18;29.00;;;22.00;;
66741;SDS011;53654;54.152;19.432;2022-10-23T07:55:09;28.20;;;21.10;;
66741;SDS011;53654;54.152;19.432;2022-10-23T07:57:43;27.60;;;21.50;;
66741;SDS011;53654;54.152;19.432;2022-10-23T08:00:40;28.60;;;22.00;;
66741;SDS011;53654;54.152;19.432;2022-10-23T08:03:12;27.40;;;21.20;;
66741;SDS011;53654;54.152;19.432;2022-10-23T08:05:40;25.40;;;21.10;;
66741;SDS011;53654;54.152;19.432;2022-10-23T08:08:08;26.60;;;21.10;;
66741;SDS011;53654;54.152;19.432;2022-10-23T08:10:37;28.70;;;22.00;;
66741;SDS011;53654;54.152;19.432;2022-10-23T08:13:10;28.60;;;21.40;;
66741;SDS011;53654;54.152;19.432;2022-10-23T08:16:07;26.40;;;20.60;;
66741;SDS011;53654;54.152;19.432;2022-10-23T08:18:54;29.80;;;21.40;;
66741;SDS011;53654;54.152;19.432;2022-10-23T08:21:22;28.50;;;21.50;;
66741;SDS011;53654;54.152;19.432;2022-10-23T08:23:55;29.00;;;21.80;;
66741;SDS011;53654;54.152;19.432;2022-10-23T08:26:25;28.40;;;20.80;;
66741;SDS011;53654;54.152;19.432;2022-10-23T08:28:59;29.30;;;21.20;;
66741;SDS011;53654;54.152;19.432;2022-10-23T08:31:27;26.00;;;21.00;;
66741;SDS011;53654;54.152;19.432;2022-10-23T08:34:14;28.00;;;21.00;;
66741;SDS011;53654;54.152;19.432;2022-10-23T08:36:44;26.30;;;20.20;;
66741;SDS011;53654;54.152;19.432;2022-10-23T08:39:13;26.30;;;20.60;;
66741;SDS011;53654;54.152;19.432;2022-10-23T08:41:51;26.10;;;20.50;;
66741;SDS011;53654;54.152;19.432;2022-10-23T08:47:09;26.40;;;20.30;;
66741;SDS011;53654;54.152;19.432;2022-10-23T08:53:02;25.20;;;20.50;;
66741;SDS011;53654;54.152;19.432;2022-10-23T08:55:40;26.80;;;20.00;;
66741;SDS011;53654;54.152;19.432;2022-10-23T08:58:21;25.20;;;20.40;;
66741;SDS011;53654;54.152;19.432;2022-10-23T09:00:56;27.00;;;21.00;;
66741;SDS011;53654;54.152;19.432;2022-10-23T09:03:25;26.30;;;20.40;;
66741;SDS011;53654;54.152;19.432;2022-10-23T09:06:03;25.40;;;21.10;;
66741;SDS011;53654;54.152;19.432;2022-10-23T09:14:06;25.80;;;20.80;;
66741;SDS011;53654;54.152;19.432;2022-10-23T09:19:58;25.40;;;21.00;;
66741;SDS011;53654;54.152;19.432;2022-10-23T09:22:39;24.60;;;20.40;;
66741;SDS011;53654;54.152;19.432;2022-10-23T09:25:09;25.40;;;20.10;;
66741;SDS011;53654;54.152;19.432;2022-10-23T09:27:39;27.90;;;22.00;;
66741;SDS011;53654;54.152;19.432;2022-10-23T09:30:28;27.90;;;22.10;;
66741;SDS011;53654;54.152;19.432;2022-10-23T09:33:15;25.90;;;21.30;;
66741;SDS011;53654;54.152;19.432;2022-10-23T09:41:10;24.60;;;21.00;;
66741;SDS011;53654;54.152;19.432;2022-10-23T09:43:42;25.20;;;21.00;;
66741;SDS011;53654;54.152;19.432;2022-10-23T09:46:11;26.60;;;21.40;;
66741;SDS011;53654;54.152;19.432;2022-10-23T09:48:40;28.70;;;22.30;;
66741;SDS011;53654;54.152;19.432;2022-10-23T09:53:51;24.60;;;20.60;;
66741;SDS011;53654;54.152;19.432;2022-10-23T09:56:32;24.80;;;20.80;;
66741;SDS011;53654;54.152;19.432;2022-10-23T10:01:45;24.30;;;21.60;;
66741;SDS011;53654;54.152;19.432;2022-10-23T10:04:38;23.40;;;20.60;;
66741;SDS011;53654;54.152;19.432;2022-10-23T10:07:18;25.70;;;21.40;;
66741;SDS011;53654;54.152;19.432;2022-10-23T10:09:48;24.50;;;21.80;;
66741;SDS011;53654;54.152;19.432;2022-10-23T10:23:13;24.20;;;20.90;;
66741;SDS011;53654;54.152;19.432;2022-10-23T10:45:32;22.70;;;20.30;;
66741;SDS011;53654;54.152;19.432;2022-10-23T10:56:59;23.30;;;20.90;;
66741;SDS011;53654;54.152;19.432;2022-10-23T10:59:34;23.50;;;21.10;;
66741;SDS011;53654;54.152;19.432;2022-10-23T11:04:52;23.20;;;20.90;;
66741;SDS011;53654;54.152;19.432;2022-10-23T11:07:56;24.70;;;22.30;;
66741;SDS011;53654;54.152;19.432;2022-10-23T11:10:27;24.30;;;21.90;;
66741;SDS011;53654;54.152;19.432;2022-10-23T11:12:56;24.50;;;21.90;;
66741;SDS011;53654;54.152;19.432;2022-10-23T11:15:27;25.10;;;22.50;;
66741;SDS011;53654;54.152;19.432;2022-10-23T11:18:03;24.00;;;21.50;;
66741;SDS011;53654;54.152;19.432;2022-10-23T11:20:43;24.20;;;21.60;;
66741;SDS011;53654;54.152;19.432;2022-10-23T11:26:11;25.60;;;22.90;;
66741;SDS011;53654;54.152;19.432;2022-10-23T11:28:49;25.10;;;22.50;;
66741;SDS011;53654;54.152;19.432;2022-10-23T11:31:33;26.30;;;23.60;;
66741;SDS011;53654;54.152;19.432;2022-10-23T11:37:03;27.60;;;24.90;;
66741;SDS011;53654;54.152;19.432;2022-10-23T11:39:33;28.10;;;25.40;;
66741;SDS011;53654;54.152;19.432;2022-10-23T11:42:12;28.60;;;25.80;;
66741;SDS011;53654;54.152;19.432;2022-10-23T11:44:46;28.80;;;25.90;;
66741;SDS011;53654;54.152;19.432;2022-10-23T11:52:35;30.50;;;27.40;;
66741;SDS011;53654;54.152;19.432;2022-10-23T11:55:21;32.00;;;28.70;;
66741;SDS011;53654;54.152;19.432;2022-10-23T12:00:32;31.80;;;28.70;;
66741;SDS011;53654;54.152;19.432;2022-10-23T12:03:02;38.90;;;35.10;;
66741;SDS011;53654;54.152;19.432;2022-10-23T12:08:05;37.60;;;33.90;;
66741;SDS011;53654;54.152;19.432;2022-10-23T12:10:46;36.30;;;32.80;;
66741;SDS011;53654;54.152;19.432;2022-10-23T12:16:16;30.60;;;27.70;;
66741;SDS011;53654;54.152;19.432;2022-10-23T12:21:26;29.10;;;26.30;;
66741;SDS011;53654;54.152;19.432;2022-10-23T12:26:43;29.70;;;26.80;;
66741;SDS011;53654;54.152;19.432;2022-10-23T12:32:52;24.30;;;21.70;;
66741;SDS011;53654;54.152;19.432;2022-10-23T12:40:28;5.70;;;5.20;;
66741;SDS011;53654;54.152;19.432;2022-10-23T12:42:58;5.10;;;4.60;;
66741;SDS011;53654;54.152;19.432;2022-10-23T12:45:31;6.00;;;5.40;;
66741;SDS011;53654;54.152;19.432;2022-10-23T12:48:14;5.70;;;5.20;;
66741;SDS011;53654;54.152;19.432;2022-10-23T12:50:50;6.00;;;5.50;;
66741;SDS011;53654;54.152;19.432;2022-10-23T12:53:21;5.30;;;4.80;;
66741;SDS011;53654;54.152;19.432;2022-10-23T12:58:31;7.20;;;5.50;;
66741;SDS011;53654;54.152;19.432;2022-10-23T13:01:04;5.80;;;5.30;;
66741;SDS011;53654;54.152;19.432;2022-10-23T13:03:48;5.80;;;5.30;;
66741;SDS011;53654;54.152;19.432;2022-10-23T13:06:17;6.40;;;5.90;;
66741;SDS011;53654;54.152;19.432;2022-10-23T13:08:46;6.30;;;5.60;;
66741;SDS011;53654;54.152;19.432;2022-10-23T13:11:33;7.70;;;6.40;;
66741;SDS011;53654;54.152;19.432;2022-10-23T13:14:11;7.60;;;6.90;;
66741;SDS011;53654;54.152;19.432;2022-10-23T13:16:41;7.20;;;6.60;;
66741;SDS011;53654;54.152;19.432;2022-10-23T13:19:22;7.80;;;7.00;;
66741;SDS011;53654;54.152;19.432;2022-10-23T13:21:52;9.20;;;7.90;;
66741;SDS011;53654;54.152;19.432;2022-10-23T13:24:21;9.00;;;8.20;;
66741;SDS011;53654;54.152;19.432;2022-10-23T13:26:52;10.00;;;9.00;;
66741;SDS011;53654;54.152;19.432;2022-10-23T13:29:31;9.70;;;8.70;;
66741;SDS011;53654;54.152;19.432;2022-10-23T13:32:10;9.40;;;8.40;;
66741;SDS011;53654;54.152;19.432;2022-10-23T13:34:39;9.50;;;8.60;;
66741;SDS011;53654;54.152;19.432;2022-10-23T13:37:36;9.60;;;8.70;;
66741;SDS011;53654;54.152;19.432;2022-10-23T13:40:06;10.10;;;9.10;;
66741;SDS011;53654;54.152;19.432;2022-10-23T13:42:49;9.00;;;7.90;;
66741;SDS011;53654;54.152;19.432;2022-10-23T13:45:21;8.80;;;8.00;;
66741;SDS011;53654;54.152;19.432;2022-10-23T13:47:51;8.40;;;7.60;;
66741;SDS011;53654;54.152;19.432;2022-10-23T13:50:19;8.50;;;7.80;;
66741;SDS011;53654;54.152;19.432;2022-10-23T13:52:49;8.90;;;7.70;;
66741;SDS011;53654;54.152;19.432;2022-10-23T13:55:23;7.80;;;7.00;;
66741;SDS011;53654;54.152;19.432;2022-10-23T13:57:53;8.40;;;7.60;;
66741;SDS011;53654;54.152;19.432;2022-10-23T14:00:21;8.80;;;7.90;;
66741;SDS011;53654;54.152;19.432;2022-10-23T14:02:49;7.00;;;6.40;;
66741;SDS011;53654;54.152;19.432;2022-10-23T14:05:17;8.20;;;7.30;;
66741;SDS011;53654;54.152;19.432;2022-10-23T14:07:45;8.30;;;7.50;;
66741;SDS011;53654;54.152;19.432;2022-10-23T14:10:13;9.30;;;7.50;;
66741;SDS011;53654;54.152;19.432;2022-10-23T14:12:42;8.80;;;7.90;;
66741;SDS011;53654;54.152;19.432;2022-10-23T14:15:11;9.60;;;8.60;;
66741;SDS011;53654;54.152;19.432;2022-10-23T14:17:39;6.90;;;6.20;;
66741;SDS011;53654;54.152;19.432;2022-10-23T14:20:07;7.60;;;6.10;;
66741;SDS011;53654;54.152;19.432;2022-10-23T14:22:36;6.20;;;5.70;;
66741;SDS011;53654;54.152;19.432;2022-10-23T14:25:04;6.00;;;5.40;;
66741;SDS011;53654;54.152;19.432;2022-10-23T14:27:33;6.50;;;5.90;;
66741;SDS011;53654;54.152;19.432;2022-10-23T14:30:01;7.00;;;6.40;;
66741;SDS011;53654;54.152;19.432;2022-10-23T14:32:29;6.60;;;5.40;;
66741;SDS011;53654;54.152;19.432;2022-10-23T14:34:58;7.00;;;5.40;;
66741;SDS011;53654;54.152;19.432;2022-10-23T14:37:30;6.40;;;5.80;;
66741;SDS011;53654;54.152;19.432;2022-10-23T14:39:59;6.90;;;6.20;;
66741;SDS011;53654;54.152;19.432;2022-10-23T14:42:27;7.30;;;6.40;;
66741;SDS011;53654;54.152;19.432;2022-10-23T14:45:00;7.30;;;6.20;;
66741;SDS011;53654;54.152;19.432;2022-10-23T14:47:29;8.10;;;6.50;;
66741;SDS011;53654;54.152;19.432;2022-10-23T14:49:58;6.30;;;5.70;;
66741;SDS011;53654;54.152;19.432;2022-10-23T14:52:26;6.80;;;6.10;;
66741;SDS011;53654;54.152;19.432;2022-10-23T14:54:54;6.90;;;6.20;;
66741;SDS011;53654;54.152;19.432;2022-10-23T14:57:22;6.50;;;5.90;;
66741;SDS011;53654;54.152;19.432;2022-10-23T14:59:50;6.90;;;6.20;;
66741;SDS011;53654;54.152;19.432;2022-10-23T15:02:18;6.40;;;5.80;;
66741;SDS011;53654;54.152;19.432;2022-10-23T15:04:46;6.40;;;5.90;;
66741;SDS011;53654;54.152;19.432;2022-10-23T15:07:14;6.80;;;6.10;;
66741;SDS011;53654;54.152;19.432;2022-10-23T15:09:42;6.60;;;6.00;;
66741;SDS011;53654;54.152;19.432;2022-10-23T15:12:10;6.50;;;5.90;;
66741;SDS011;53654;54.152;19.432;2022-10-23T15:14:38;6.80;;;6.20;;
66741;SDS011;53654;54.152;19.432;2022-10-23T15:17:06;6.80;;;6.20;;
66741;SDS011;53654;54.152;19.432;2022-10-23T15:19:40;7.20;;;6.60;;
66741;SDS011;53654;54.152;19.432;2022-10-23T15:22:08;9.00;;;7.20;;
66741;SDS011;53654;54.152;19.432;2022-10-23T15:24:36;8.70;;;7.90;;
66741;SDS011;53654;54.152;19.432;2022-10-23T15:27:05;9.40;;;8.60;;
66741;SDS011;53654;54.152;19.432;2022-10-23T15:29:33;12.40;;;11.20;;
66741;SDS011;53654;54.152;19.432;2022-10-23T15:32:01;10.60;;;9.50;;
66741;SDS011;53654;54.152;19.432;2022-10-23T15:34:32;9.70;;;8.80;;
66741;SDS011;53654;54.152;19.432;2022-10-23T15:37:00;9.70;;;8.80;;
66741;SDS011;53654;54.152;19.432;2022-10-23T15:39:29;9.70;;;8.80;;
66741;SDS011;53654;54.152;19.432;2022-10-23T15:42:01;10.30;;;9.30;;
66741;SDS011;53654;54.152;19.432;2022-10-23T15:44:31;10.10;;;9.10;;
66741;SDS011;53654;54.152;19.432;2022-10-23T15:47:00;11.50;;;10.40;;
66741;SDS011;53654;54.152;19.432;2022-10-23T15:49:28;11.50;;;10.40;;
66741;SDS011;53654;54.152;19.432;2022-10-23T15:51:56;11.30;;;10.10;;
66741;SDS011;53654;54.152;19.432;2022-10-23T15:55:02;12.10;;;10.90;;
66741;SDS011;53654;54.152;19.432;2022-10-23T15:57:31;11.40;;;10.30;;
66741;SDS011;53654;54.152;19.432;2022-10-23T15:59:59;13.70;;;12.40;;
66741;SDS011;53654;54.152;19.432;2022-10-23T16:02:27;13.60;;;12.30;;
66741;SDS011;53654;54.152;19.432;2022-10-23T16:04:55;14.40;;;13.00;;
66741;SDS011;53654;54.152;19.432;2022-10-23T16:07:23;14.60;;;13.30;;
66741;SDS011;53654;54.152;19.432;2022-10-23T16:09:51;14.80;;;13.20;;
66741;SDS011;53654;54.152;19.432;2022-10-23T16:12:19;22.50;;;20.30;;
66741;SDS011;53654;54.152;19.432;2022-10-23T16:14:47;46.30;;;40.80;;
66741;SDS011;53654;54.152;19.432;2022-10-23T16:17:16;42.90;;;38.00;;
66741;SDS011;53654;54.152;19.432;2022-10-23T16:19:46;41.00;;;36.30;;
66741;SDS011;53654;54.152;19.432;2022-10-23T16:22:14;42.20;;;37.60;;
66741;SDS011;53654;54.152;19.432;2022-10-23T16:24:42;44.20;;;38.60;;
66741;SDS011;53654;54.152;19.432;2022-10-23T16:27:10;49.70;;;43.00;;
66741;SDS011;53654;54.152;19.432;2022-10-23T16:29:39;44.10;;;39.30;;
66741;SDS011;53654;54.152;19.432;2022-10-23T16:32:08;42.30;;;37.80;;
66741;SDS011;53654;54.152;19.432;2022-10-23T16:34:35;36.30;;;32.60;;
66741;SDS011;53654;54.152;19.432;2022-10-23T16:37:03;36.50;;;32.80;;
66741;SDS011;53654;54.152;19.432;2022-10-23T16:39:45;30.50;;;27.40;;
66741;SDS011;53654;54.152;19.432;2022-10-23T16:42:32;35.80;;;31.90;;
66741;SDS011;53654;54.152;19.432;2022-10-23T16:45:36;34.70;;;31.10;;
66741;SDS011;53654;54.152;19.432;2022-10-23T16:48:04;42.50;;;38.30;;
66741;SDS011;53654;54.152;19.432;2022-10-23T16:50:32;42.30;;;38.20;;
66741;SDS011;53654;54.152;19.432;2022-10-23T16:53:00;61.00;;;54.60;;
66741;SDS011;53654;54.152;19.432;2022-10-23T16:55:28;59.20;;;53.10;;
66741;SDS011;53654;54.152;19.432;2022-10-23T16:57:57;55.90;;;50.20;;
66741;SDS011;53654;54.152;19.432;2022-10-23T17:00:27;43.20;;;38.70;;
66741;SDS011;53654;54.152;19.432;2022-10-23T17:03:02;50.30;;;44.90;;